createdAt,value
2023-03-16T00:02:14.070Z,0.75
2023-03-16T00:04:40.463Z,0.63
2023-03-16T00:07:09.033Z,0.28
2023-03-16T00:09:40.707Z,0.70
2023-03-16T00:12:15.704Z,0.77
2023-03-16T00:14:43.964Z,0.55
2023-03-16T00:17:18.926Z,0.60
2023-03-16T00:19:55.044Z,1.00
2023-03-16T00:22:26.782Z,1.27
2023-03-16T00:24:53.768Z,0.60
2023-03-16T00:27:22.675Z,0.70
2023-03-16T00:29:55.561Z,0.85
2023-03-16T00:32:28.428Z,0.85
2023-03-16T00:34:55.513Z,0.70
2023-03-16T00:37:23.485Z,1.17
2023-03-16T00:39:51.354Z,0.88
2023-03-16T00:42:19.321Z,0.73
2023-03-16T00:44:46.150Z,1.00
2023-03-16T00:47:14.326Z,1.00
2023-03-16T00:49:44.337Z,0.80
2023-03-16T00:52:14.576Z,1.00
2023-03-16T00:54:46.398Z,0.90
2023-03-16T00:57:16.443Z,1.10
2023-03-16T00:59:42.844Z,1.10
2023-03-16T01:02:10.159Z,1.67
2023-03-16T01:04:37.954Z,2.05
2023-03-16T01:07:05.030Z,0.90
2023-03-16T01:09:36.729Z,0.90
2023-03-16T01:12:06.138Z,1.10
2023-03-16T01:14:34.688Z,0.88
2023-03-16T01:17:02.886Z,0.85
2023-03-16T01:19:30.204Z,1.05
2023-03-16T01:21:56.553Z,1.48
2023-03-16T01:24:24.254Z,1.30
2023-03-16T01:26:50.745Z,1.20
2023-03-16T01:29:17.142Z,1.42
2023-03-16T01:31:43.531Z,1.23
2023-03-16T01:34:16.433Z,1.50
2023-03-16T01:36:44.286Z,1.65
2023-03-16T01:39:12.031Z,2.05
2023-03-16T01:41:40.008Z,1.10
2023-03-16T01:44:06.685Z,1.40
2023-03-16T01:46:33.207Z,1.52
2023-03-16T01:49:05.751Z,1.55
2023-03-16T01:51:59.860Z,1.38
2023-03-16T01:54:47.098Z,1.70
2023-03-16T01:57:22.236Z,1.70
2023-03-16T02:00:15.733Z,1.38
2023-03-16T02:02:44.773Z,1.20
2023-03-16T02:05:19.437Z,2.17
2023-03-16T02:07:50.741Z,2.40
2023-03-16T02:10:19.918Z,0.85
2023-03-16T02:12:47.159Z,1.90
2023-03-16T02:15:14.522Z,1.23
2023-03-16T02:17:43.853Z,1.42
2023-03-16T02:20:24.489Z,1.73
2023-03-16T02:22:54.214Z,1.55
2023-03-16T02:25:29.563Z,1.33
2023-03-16T02:28:19.578Z,1.33
2023-03-16T02:30:47.657Z,1.48
2023-03-16T02:33:17.519Z,1.55
2023-03-16T02:35:44.016Z,1.40
2023-03-16T02:38:10.949Z,1.85
2023-03-16T02:40:38.678Z,1.42
2023-03-16T02:43:09.587Z,1.42
2023-03-16T02:46:04.985Z,1.08
2023-03-16T02:48:53.214Z,1.60
2023-03-16T02:51:19.537Z,0.77
2023-03-16T02:53:45.864Z,0.93
2023-03-16T02:56:12.217Z,1.50
2023-03-16T02:58:38.539Z,1.60
2023-03-16T03:01:04.965Z,1.77
2023-03-16T03:03:34.259Z,1.05
2023-03-16T03:06:01.785Z,1.60
2023-03-16T03:08:28.189Z,1.48
2023-03-16T03:10:54.558Z,1.50
2023-03-16T03:13:21.115Z,1.45
2023-03-16T03:15:47.534Z,1.63
2023-03-16T03:18:14.427Z,1.70
2023-03-16T03:20:41.001Z,1.65
2023-03-16T03:23:07.568Z,1.58
2023-03-16T03:25:36.764Z,1.60
2023-03-16T03:28:05.506Z,1.45
2023-03-16T03:30:32.444Z,1.13
2023-03-16T03:32:58.821Z,1.35
2023-03-16T03:35:25.604Z,1.60
2023-03-16T03:37:52.081Z,1.30
2023-03-16T03:40:20.009Z,1.25
2023-03-16T03:42:46.537Z,1.73
2023-03-16T03:45:14.601Z,1.05
2023-03-16T03:47:42.081Z,1.30
2023-03-16T03:50:10.844Z,1.75
2023-03-16T03:52:37.400Z,1.23
2023-03-16T03:55:03.994Z,1.88
2023-03-16T03:57:30.355Z,1.20
2023-03-16T03:59:56.890Z,1.40
2023-03-16T04:02:23.417Z,1.50
2023-03-16T04:04:50.144Z,1.45
2023-03-16T04:07:16.832Z,1.07
2023-03-16T04:09:43.240Z,1.50
2023-03-16T04:12:11.000Z,1.33
2023-03-16T04:14:37.505Z,1.17
2023-03-16T04:17:04.739Z,1.60
2023-03-16T04:19:31.298Z,1.60
2023-03-16T04:21:57.654Z,1.33
2023-03-16T04:24:24.025Z,1.20
2023-03-16T04:26:50.490Z,1.17
2023-03-16T04:29:19.729Z,0.88
2023-03-16T04:31:46.557Z,1.95
2023-03-16T04:34:13.450Z,1.13
2023-03-16T04:36:40.031Z,1.50
2023-03-16T04:39:06.649Z,0.77
2023-03-16T04:41:33.207Z,1.88
2023-03-16T04:43:59.604Z,1.57
2023-03-16T04:46:27.045Z,1.65
2023-03-16T04:48:54.313Z,0.88
2023-03-16T04:51:21.505Z,0.93
2023-03-16T04:53:47.926Z,1.50
2023-03-16T04:56:19.349Z,1.10
2023-03-16T04:58:47.700Z,1.38
2023-03-16T05:01:14.432Z,1.33
2023-03-16T05:03:41.333Z,1.70
2023-03-16T05:06:07.810Z,1.33
2023-03-16T05:08:34.129Z,1.63
2023-03-16T05:11:00.571Z,1.45
2023-03-16T05:13:26.961Z,1.25
2023-03-16T05:15:53.882Z,1.45
2023-03-16T05:18:21.605Z,1.10
2023-03-16T05:20:53.479Z,1.10
2023-03-16T05:23:21.024Z,1.23
2023-03-16T05:25:48.425Z,1.13
2023-03-16T05:28:15.057Z,1.25
2023-03-16T05:30:42.323Z,1.20
2023-03-16T05:33:09.327Z,1.52
2023-03-16T05:35:35.828Z,1.00
2023-03-16T05:38:02.770Z,1.00
2023-03-16T05:40:29.652Z,0.93
2023-03-16T05:42:57.630Z,1.10
2023-03-16T05:45:24.341Z,1.17
2023-03-16T05:47:50.667Z,0.68
2023-03-16T05:50:17.488Z,1.20
2023-03-16T05:52:45.528Z,1.48
2023-03-16T05:55:17.364Z,0.82
2023-03-16T05:57:44.419Z,0.50
2023-03-16T06:00:19.570Z,0.85
2023-03-16T06:02:48.970Z,1.00
2023-03-16T06:05:16.618Z,0.88
2023-03-16T06:07:43.070Z,1.10
2023-03-16T06:10:11.298Z,1.00
2023-03-16T06:12:38.375Z,0.90
2023-03-16T06:15:10.166Z,0.70
2023-03-16T06:17:37.705Z,0.70
2023-03-16T06:20:10.682Z,3.33
2023-03-16T06:22:44.025Z,0.80
2023-03-16T06:25:12.144Z,0.98
2023-03-16T06:27:39.714Z,1.05
2023-03-16T06:30:08.698Z,1.13
2023-03-16T06:32:36.218Z,1.15
2023-03-16T06:35:03.576Z,1.10
2023-03-16T06:37:31.153Z,0.70
2023-03-16T06:39:57.542Z,1.00
2023-03-16T06:42:24.005Z,1.25
2023-03-16T06:44:50.347Z,0.68
2023-03-16T06:47:16.680Z,1.05
2023-03-16T06:49:43.105Z,1.08
2023-03-16T06:52:10.645Z,0.80
2023-03-16T06:54:37.586Z,0.90
2023-03-16T06:57:04.312Z,1.02
2023-03-16T06:59:31.280Z,0.77
2023-03-16T07:01:57.697Z,0.88
2023-03-16T07:04:24.413Z,0.85
2023-03-16T07:06:51.595Z,0.90
2023-03-16T07:09:18.021Z,0.68
2023-03-16T07:11:44.793Z,1.20
2023-03-16T07:14:11.828Z,0.80
2023-03-16T07:16:38.273Z,0.70
2023-03-16T07:19:04.791Z,0.98
2023-03-16T07:21:38.965Z,0.75
2023-03-16T07:24:07.190Z,0.68
2023-03-16T07:26:34.125Z,0.82
2023-03-16T07:29:00.784Z,0.90
2023-03-16T07:31:28.551Z,0.80
2023-03-16T07:33:54.896Z,0.60
2023-03-16T07:36:21.290Z,0.98
2023-03-16T07:38:47.695Z,0.90
2023-03-16T07:41:14.369Z,0.57
2023-03-16T07:43:40.703Z,1.02
2023-03-16T07:46:07.237Z,0.93
2023-03-16T07:48:33.742Z,0.80
2023-03-16T07:51:00.079Z,0.90
2023-03-16T07:53:26.421Z,1.42
2023-03-16T07:55:52.958Z,1.02
2023-03-16T07:58:19.397Z,0.98
2023-03-16T08:00:45.727Z,0.55
2023-03-16T08:03:12.188Z,1.27
2023-03-16T08:05:38.529Z,0.85
2023-03-16T08:08:05.217Z,0.60
2023-03-16T08:10:32.263Z,0.85
2023-03-16T08:12:58.987Z,1.27
2023-03-16T08:15:25.457Z,0.90
2023-03-16T08:17:52.592Z,0.88
2023-03-16T08:20:19.071Z,0.80
2023-03-16T08:22:46.679Z,0.80
2023-03-16T08:25:13.913Z,0.90
2023-03-16T08:27:41.721Z,0.82
2023-03-16T08:30:11.787Z,0.93
2023-03-16T08:32:41.882Z,0.77
2023-03-16T08:35:12.369Z,0.65
2023-03-16T08:37:38.922Z,1.00
2023-03-16T08:40:15.631Z,1.25
2023-03-16T08:42:43.065Z,1.02
2023-03-16T08:45:13.576Z,0.98
2023-03-16T08:47:40.524Z,0.50
2023-03-16T08:50:09.012Z,1.17
2023-03-16T08:52:36.484Z,0.90
2023-03-16T08:55:07.267Z,1.00
2023-03-16T08:57:34.447Z,0.80
2023-03-16T09:00:01.572Z,1.00
2023-03-16T09:02:28.073Z,0.98
2023-03-16T09:04:54.688Z,1.37
2023-03-16T09:07:21.829Z,0.50
2023-03-16T09:09:48.267Z,0.60
2023-03-16T09:12:14.680Z,0.90
2023-03-16T09:14:41.091Z,0.93
2023-03-16T09:17:11.587Z,1.10
2023-03-16T09:19:50.421Z,1.33
2023-03-16T09:22:18.367Z,0.73
2023-03-16T09:24:44.938Z,1.08
2023-03-16T09:27:11.983Z,0.80
2023-03-16T09:29:38.397Z,1.13
2023-03-16T09:32:05.264Z,1.10
2023-03-16T09:34:33.255Z,1.33
2023-03-16T09:37:00.475Z,0.80
2023-03-16T09:39:27.172Z,1.52
2023-03-16T09:42:26.085Z,0.50
2023-03-16T09:44:52.384Z,1.02
2023-03-16T09:47:25.612Z,0.80
2023-03-16T09:49:55.113Z,0.70
2023-03-16T09:52:50.460Z,0.77
2023-03-16T09:55:28.314Z,0.85
2023-03-16T09:57:55.254Z,0.70
2023-03-16T10:00:28.085Z,1.08
2023-03-16T10:03:19.150Z,0.85
2023-03-16T10:05:49.383Z,0.88
2023-03-16T10:08:24.609Z,0.63
2023-03-16T10:11:15.602Z,0.80
2023-03-16T10:14:04.135Z,0.82
2023-03-16T10:16:38.500Z,1.10
2023-03-16T10:19:19.918Z,0.88
2023-03-16T10:21:49.826Z,0.80
2023-03-16T10:24:29.796Z,0.90
2023-03-16T10:27:01.106Z,0.80
2023-03-16T10:29:36.733Z,0.68
2023-03-16T10:32:16.429Z,0.75
2023-03-16T10:34:48.633Z,0.60
2023-03-16T10:37:15.135Z,0.57
2023-03-16T10:39:43.145Z,0.70
2023-03-16T10:42:19.922Z,0.68
2023-03-16T10:44:47.049Z,1.23
2023-03-16T10:47:27.929Z,0.63
2023-03-16T10:49:55.619Z,0.47
2023-03-16T10:52:34.492Z,0.40
2023-03-16T10:55:10.663Z,0.73
2023-03-16T10:57:42.078Z,0.90
2023-03-16T11:00:16.274Z,0.80
2023-03-16T11:02:43.316Z,0.52
2023-03-16T11:05:18.853Z,0.60
2023-03-16T11:07:50.473Z,0.70
2023-03-16T11:10:40.453Z,0.50
2023-03-16T11:13:15.978Z,0.60
2023-03-16T11:16:14.269Z,0.40
2023-03-16T11:18:47.576Z,0.40
2023-03-16T11:21:30.106Z,0.60
2023-03-16T11:23:58.098Z,0.45
2023-03-16T11:26:35.271Z,0.50
2023-03-16T11:29:20.138Z,0.40
2023-03-16T11:31:55.273Z,0.77
2023-03-16T11:34:30.755Z,0.63
2023-03-16T11:37:08.756Z,0.95
2023-03-16T11:40:15.564Z,0.40
2023-03-16T11:42:59.750Z,0.30
2023-03-16T11:45:40.107Z,0.70
2023-03-16T11:48:20.453Z,0.60
2023-03-16T11:51:02.682Z,0.60
2023-03-16T11:53:56.447Z,0.40
2023-03-16T11:56:28.644Z,0.40
2023-03-16T11:59:14.280Z,0.57
2023-03-16T12:02:01.407Z,0.90
2023-03-16T12:04:40.105Z,0.75
2023-03-16T12:07:58.256Z,0.53
2023-03-16T12:10:32.834Z,0.80
2023-03-16T12:13:18.474Z,0.40
2023-03-16T12:15:53.429Z,0.40
2023-03-16T12:18:27.303Z,0.38
2023-03-16T12:20:58.743Z,0.70
2023-03-16T12:23:36.578Z,0.60
2023-03-16T12:26:04.035Z,0.47
2023-03-16T12:28:32.101Z,0.50
2023-03-16T12:31:05.259Z,0.38
2023-03-16T12:33:44.407Z,0.30
2023-03-16T12:36:19.556Z,0.50
2023-03-16T12:38:53.762Z,0.40
2023-03-16T12:41:33.722Z,0.45
2023-03-16T12:44:06.145Z,0.50
2023-03-16T12:46:53.423Z,0.40
2023-03-16T12:49:21.043Z,0.50
2023-03-16T12:51:59.611Z,0.40
2023-03-16T12:54:26.415Z,0.43
2023-03-16T12:57:03.018Z,0.50
2023-03-16T12:59:42.792Z,0.27
2023-03-16T13:02:37.655Z,0.60
2023-03-16T13:05:31.424Z,0.43
2023-03-16T13:08:08.954Z,0.32
2023-03-16T13:10:35.470Z,0.40
2023-03-16T13:13:13.749Z,0.40
2023-03-16T13:15:41.575Z,0.25
2023-03-16T13:18:17.204Z,0.30
2023-03-16T13:20:57.308Z,0.47
2023-03-16T13:23:27.406Z,0.40
2023-03-16T13:26:01.603Z,0.30
2023-03-16T13:28:31.570Z,0.30
2023-03-16T13:30:58.113Z,0.60
2023-03-16T13:33:27.851Z,0.30
2023-03-16T13:35:57.436Z,0.32
2023-03-16T13:38:27.537Z,0.43
2023-03-16T13:41:02.661Z,0.50
2023-03-16T13:43:32.864Z,0.28
2023-03-16T13:45:59.491Z,0.20
2023-03-16T13:48:26.015Z,0.30
2023-03-16T13:50:54.520Z,0.30
2023-03-16T13:53:20.880Z,0.30
2023-03-16T13:55:48.042Z,0.22
2023-03-16T13:58:28.747Z,0.40
2023-03-16T14:00:57.580Z,0.10
2023-03-16T14:03:33.077Z,0.33
2023-03-16T14:06:01.677Z,0.25
2023-03-16T14:08:29.680Z,0.25
2023-03-16T14:10:59.220Z,0.20
2023-03-16T14:13:32.934Z,0.38
2023-03-16T14:16:11.577Z,0.23
2023-03-16T14:18:48.184Z,0.30
2023-03-16T14:21:18.157Z,0.20
2023-03-16T14:23:46.521Z,0.30
2023-03-16T14:26:16.120Z,0.30
2023-03-16T14:28:55.527Z,0.33
2023-03-16T14:31:22.172Z,0.63
2023-03-16T14:33:48.749Z,0.20
2023-03-16T14:36:17.414Z,0.20
2023-03-16T14:38:45.488Z,0.30
2023-03-16T14:41:11.814Z,0.20
2023-03-16T14:43:54.594Z,0.30
2023-03-16T14:46:30.132Z,0.40
2023-03-16T14:49:19.095Z,0.20
2023-03-16T14:51:48.046Z,0.25
2023-03-16T14:54:17.202Z,0.30
2023-03-16T14:56:51.570Z,0.30
2023-03-16T14:59:18.509Z,0.30
2023-03-16T15:01:45.678Z,0.20
2023-03-16T15:04:15.345Z,0.30
2023-03-16T15:06:41.855Z,0.27
2023-03-16T15:09:39.928Z,0.30
2023-03-16T15:12:14.736Z,0.17
2023-03-16T15:14:59.783Z,0.22
2023-03-16T15:17:26.993Z,0.25
2023-03-16T15:19:53.595Z,0.10
2023-03-16T15:22:27.358Z,0.25
2023-03-16T15:24:54.421Z,0.20
2023-03-16T15:27:25.148Z,0.20
2023-03-16T15:29:52.189Z,0.20
2023-03-16T15:32:18.577Z,0.30
2023-03-16T15:34:47.824Z,0.20
2023-03-16T15:37:17.156Z,0.20
2023-03-16T15:39:46.188Z,0.30
2023-03-16T15:42:18.493Z,0.30
2023-03-16T15:44:46.051Z,0.20
2023-03-16T15:47:12.846Z,0.30
2023-03-16T15:49:47.131Z,0.20
2023-03-16T15:52:30.439Z,0.13
2023-03-16T15:54:59.155Z,0.20
2023-03-16T15:57:26.018Z,0.20
2023-03-16T15:59:52.355Z,0.20
2023-03-16T16:02:28.017Z,0.20
2023-03-16T16:04:54.845Z,0.57
2023-03-16T16:07:21.355Z,0.20
2023-03-16T16:09:48.154Z,0.40
2023-03-16T16:12:16.524Z,0.25
2023-03-16T16:14:43.026Z,0.30
2023-03-16T16:17:19.885Z,0.20
2023-03-16T16:19:46.326Z,0.20
2023-03-16T16:22:13.060Z,0.23
2023-03-16T16:24:39.648Z,0.30
2023-03-16T16:27:10.730Z,0.30
2023-03-16T16:29:37.151Z,0.20
2023-03-16T16:32:04.059Z,0.28
2023-03-16T16:34:31.124Z,0.47
2023-03-16T16:36:57.870Z,0.20
2023-03-16T16:39:24.593Z,0.20
2023-03-16T16:41:54.436Z,0.38
2023-03-16T16:44:24.341Z,0.30
2023-03-16T16:46:51.941Z,0.40
2023-03-16T16:49:24.600Z,0.30
2023-03-16T16:51:52.765Z,0.47
2023-03-16T16:54:24.397Z,0.20
2023-03-16T16:56:53.255Z,0.30
2023-03-16T16:59:29.558Z,0.30
2023-03-16T17:01:59.097Z,0.40
2023-03-16T17:04:28.235Z,0.38
2023-03-16T17:07:00.771Z,0.30
2023-03-16T17:09:28.326Z,0.25
2023-03-16T17:11:58.768Z,0.30
2023-03-16T17:14:27.650Z,0.30
2023-03-16T17:16:54.421Z,0.30
2023-03-16T17:19:27.682Z,0.43
2023-03-16T17:21:57.126Z,0.30
2023-03-16T17:24:24.317Z,0.27
2023-03-16T17:26:53.983Z,0.45
2023-03-16T17:29:25.613Z,0.50
2023-03-16T17:31:52.811Z,0.25
2023-03-16T17:34:22.699Z,0.30
2023-03-16T17:36:49.522Z,0.50
2023-03-16T17:39:18.818Z,0.20
2023-03-16T17:41:45.268Z,0.20
2023-03-16T17:44:14.218Z,0.40
2023-03-16T17:46:41.242Z,0.20
2023-03-16T17:49:13.502Z,0.20
2023-03-16T17:51:40.882Z,0.30
2023-03-16T17:54:07.696Z,0.20
2023-03-16T17:56:34.126Z,0.20
2023-03-16T17:59:05.458Z,0.20
2023-03-16T18:01:33.683Z,0.23
2023-03-16T18:04:01.548Z,0.38
2023-03-16T18:06:29.883Z,0.30
2023-03-16T18:08:57.249Z,0.30
2023-03-16T18:11:39.696Z,0.77
2023-03-16T18:14:08.702Z,0.60
2023-03-16T18:16:36.052Z,0.30
2023-03-16T18:19:20.623Z,0.47
2023-03-16T18:21:47.011Z,0.30
2023-03-16T18:24:19.614Z,0.35
2023-03-16T18:26:46.036Z,0.60
2023-03-16T18:29:13.961Z,0.40
2023-03-16T18:31:42.270Z,0.73
2023-03-16T18:34:21.480Z,0.30
2023-03-16T18:36:47.883Z,0.60
2023-03-16T18:39:18.895Z,0.40
2023-03-16T18:41:46.903Z,0.50
2023-03-16T18:44:18.946Z,0.50
2023-03-16T18:46:46.590Z,0.50
2023-03-16T18:49:18.915Z,0.60
2023-03-16T18:51:48.926Z,1.00
2023-03-16T18:54:24.795Z,0.55
2023-03-16T18:56:52.769Z,0.73
2023-03-16T18:59:19.677Z,0.65
2023-03-16T19:01:47.031Z,0.52
2023-03-16T19:04:33.017Z,0.50
2023-03-16T19:06:59.587Z,0.60
2023-03-16T19:09:31.073Z,0.47
2023-03-16T19:11:58.481Z,0.75
2023-03-16T19:14:26.633Z,0.65
2023-03-16T19:16:55.154Z,0.60
2023-03-16T19:19:22.662Z,0.73
2023-03-16T19:21:52.645Z,0.50
2023-03-16T19:24:26.446Z,0.55
2023-03-16T19:26:53.833Z,0.60
2023-03-16T19:29:26.599Z,0.40
2023-03-16T19:31:54.371Z,0.30
2023-03-16T19:34:21.215Z,0.30
2023-03-16T19:36:48.222Z,0.20
2023-03-16T19:39:16.940Z,0.40
2023-03-16T19:41:47.455Z,0.30
2023-03-16T19:44:20.478Z,0.30
2023-03-16T19:46:47.497Z,0.50
2023-03-16T19:49:16.536Z,0.40
2023-03-16T19:51:43.493Z,0.38
2023-03-16T19:54:21.907Z,0.50
2023-03-16T19:56:48.989Z,0.20
2023-03-16T19:59:15.799Z,0.40
2023-03-16T20:01:42.209Z,0.40
2023-03-16T20:04:18.173Z,0.22
2023-03-16T20:06:44.595Z,0.37
2023-03-16T20:09:10.941Z,0.30
2023-03-16T20:11:37.937Z,0.57
2023-03-16T20:14:05.957Z,0.40
2023-03-16T20:16:34.477Z,0.70
2023-03-16T20:19:03.443Z,0.30
2023-03-16T20:21:30.453Z,0.30
2023-03-16T20:23:56.966Z,0.30
2023-03-16T20:26:32.098Z,0.30
2023-03-16T20:29:00.741Z,0.40
2023-03-16T20:31:31.357Z,0.20
2023-03-16T20:33:58.547Z,0.40
2023-03-16T20:36:26.325Z,0.32
2023-03-16T20:38:52.794Z,0.22
2023-03-16T20:41:29.058Z,0.40
2023-03-16T20:43:58.365Z,0.20
2023-03-16T20:46:27.711Z,0.20
2023-03-16T20:48:55.174Z,0.40
2023-03-16T20:51:21.639Z,0.40
2023-03-16T20:53:49.012Z,0.30
2023-03-16T20:56:21.631Z,0.20
2023-03-16T20:58:50.348Z,0.30
2023-03-16T21:01:22.142Z,0.43
2023-03-16T21:03:52.020Z,0.30
2023-03-16T21:06:30.075Z,0.30
2023-03-16T21:08:58.613Z,0.30
2023-03-16T21:11:29.274Z,0.32
2023-03-16T21:13:56.406Z,0.47
2023-03-16T21:16:23.305Z,0.25
2023-03-16T21:18:49.773Z,0.30
2023-03-16T21:21:18.333Z,0.70
2023-03-16T21:23:45.549Z,0.20
2023-03-16T21:26:20.811Z,0.30
2023-03-16T21:28:58.062Z,0.40
2023-03-16T21:31:25.830Z,0.30
2023-03-16T21:33:53.937Z,0.40
2023-03-16T21:36:23.869Z,0.52
2023-03-16T21:38:52.245Z,0.20
2023-03-16T21:41:19.180Z,0.30
2023-03-16T21:43:46.545Z,0.30
2023-03-16T21:46:18.668Z,0.30
2023-03-16T21:48:48.840Z,0.40
2023-03-16T21:51:21.938Z,0.38
2023-03-16T21:53:49.608Z,0.35
2023-03-16T21:56:19.115Z,0.43
2023-03-16T21:58:47.107Z,0.23
2023-03-16T22:01:24.719Z,0.30
2023-03-16T22:03:53.676Z,0.50
2023-03-16T22:06:22.425Z,0.45
2023-03-16T22:08:51.118Z,0.30
2023-03-16T22:11:21.174Z,0.40
2023-03-16T22:13:49.153Z,0.30
2023-03-16T22:16:18.473Z,0.30
2023-03-16T22:18:47.114Z,0.45
2023-03-16T22:21:25.303Z,0.43
2023-03-16T22:23:52.094Z,0.50
2023-03-16T22:26:21.276Z,0.43
2023-03-16T22:28:48.255Z,0.73
2023-03-16T22:31:18.661Z,0.57
2023-03-16T22:33:47.709Z,0.50
2023-03-16T22:36:20.177Z,0.50
2023-03-16T22:38:52.802Z,0.40
2023-03-16T22:41:19.185Z,0.40
2023-03-16T22:43:45.781Z,0.60
2023-03-16T22:46:24.421Z,0.30
2023-03-16T22:48:52.213Z,0.40
2023-03-16T22:51:34.974Z,0.40
2023-03-16T22:54:04.600Z,0.75
2023-03-16T22:56:32.446Z,0.90
2023-03-16T22:59:02.358Z,0.40
2023-03-16T23:01:39.271Z,0.40
2023-03-16T23:04:14.004Z,0.50
2023-03-16T23:06:40.992Z,0.40
2023-03-16T23:09:07.436Z,0.30
2023-03-16T23:11:37.027Z,0.57
2023-03-16T23:14:05.470Z,0.50
2023-03-16T23:16:37.022Z,0.32
2023-03-16T23:19:07.664Z,0.50
2023-03-16T23:21:37.125Z,0.50
2023-03-16T23:24:04.647Z,0.30
2023-03-16T23:26:31.748Z,0.57
2023-03-16T23:28:58.604Z,0.55
2023-03-16T23:31:27.179Z,0.40
2023-03-16T23:33:54.155Z,0.50
2023-03-16T23:36:22.931Z,0.65
2023-03-16T23:38:49.719Z,0.40
2023-03-16T23:41:19.519Z,0.70
2023-03-16T23:43:47.435Z,0.57
2023-03-16T23:46:16.854Z,0.35
2023-03-16T23:48:45.204Z,0.45
2023-03-16T23:51:25.663Z,0.70
2023-03-16T23:53:53.025Z,0.90
2023-03-16T23:56:20.164Z,0.47
2023-03-16T23:58:46.503Z,0.80
